createdAt,value
2023-03-14T00:00:37.769Z,14.80
2023-03-14T00:03:09.724Z,14.80
2023-03-14T00:05:41.676Z,14.80
2023-03-14T00:08:13.794Z,14.80
2023-03-14T00:10:48.354Z,14.80
2023-03-14T00:13:20.374Z,14.80
2023-03-14T00:15:52.409Z,14.90
2023-03-14T00:18:25.164Z,14.80
2023-03-14T00:20:58.907Z,14.80
2023-03-14T00:23:32.731Z,14.80
2023-03-14T00:26:09.391Z,14.90
2023-03-14T00:28:42.524Z,14.90
2023-03-14T00:31:16.386Z,14.90
2023-03-14T00:33:48.722Z,15.00
2023-03-14T00:36:22.166Z,15.00
2023-03-14T00:38:54.220Z,15.10
2023-03-14T00:41:28.826Z,15.10
2023-03-14T00:44:00.774Z,15.10
2023-03-14T00:46:32.797Z,15.10
2023-03-14T00:49:04.744Z,15.20
2023-03-14T00:51:36.735Z,15.20
2023-03-14T00:54:08.796Z,15.20
2023-03-14T00:56:43.368Z,15.20
2023-03-14T00:59:16.987Z,15.10
2023-03-14T01:01:49.034Z,14.90
2023-03-14T01:04:21.059Z,14.70
2023-03-14T01:06:53.038Z,14.40
2023-03-14T01:09:25.068Z,14.20
2023-03-14T01:11:59.710Z,13.90
2023-03-14T01:14:31.882Z,13.70
2023-03-14T01:17:03.879Z,13.50
2023-03-14T01:19:35.914Z,13.30
2023-03-14T01:22:07.929Z,13.20
2023-03-14T01:24:39.912Z,13.00
2023-03-14T01:27:14.623Z,12.90
2023-03-14T01:29:48.238Z,12.80
2023-03-14T01:32:20.265Z,12.70
2023-03-14T01:34:52.350Z,12.60
2023-03-14T01:37:24.387Z,12.50
2023-03-14T01:39:56.350Z,12.50
2023-03-14T01:42:30.934Z,12.40
2023-03-14T01:45:03.393Z,12.30
2023-03-14T01:47:35.389Z,12.30
2023-03-14T01:50:11.475Z,12.30
2023-03-14T01:52:47.714Z,12.20
2023-03-14T01:55:24.592Z,12.20
2023-03-14T01:58:03.464Z,12.10
2023-03-14T02:00:35.745Z,12.10
2023-03-14T02:03:13.152Z,12.10
2023-03-14T02:05:47.894Z,12.00
2023-03-14T02:08:22.509Z,12.00
2023-03-14T02:10:54.492Z,12.00
2023-03-14T02:13:29.291Z,11.90
2023-03-14T02:16:01.348Z,11.90
2023-03-14T02:18:33.844Z,11.90
2023-03-14T02:21:12.648Z,11.90
2023-03-14T02:23:54.203Z,11.80
2023-03-14T02:26:32.611Z,11.80
2023-03-14T02:29:07.330Z,11.90
2023-03-14T02:31:39.720Z,11.90
2023-03-14T02:34:12.058Z,11.90
2023-03-14T02:36:44.044Z,11.80
2023-03-14T02:39:22.771Z,11.80
2023-03-14T02:41:54.771Z,11.80
2023-03-14T02:44:29.464Z,11.80
2023-03-14T02:47:01.572Z,11.80
2023-03-14T02:49:34.606Z,11.80
2023-03-14T02:52:07.159Z,11.80
2023-03-14T02:54:39.105Z,11.80
2023-03-14T02:57:11.113Z,11.80
2023-03-14T02:59:45.659Z,11.80
2023-03-14T03:02:18.027Z,11.80
2023-03-14T03:04:49.996Z,11.80
2023-03-14T03:07:22.071Z,11.80
2023-03-14T03:09:54.145Z,11.80
2023-03-14T03:12:26.107Z,11.80
2023-03-14T03:15:00.706Z,11.80
2023-03-14T03:17:32.667Z,11.80
2023-03-14T03:20:06.473Z,11.80
2023-03-14T03:22:38.725Z,11.70
2023-03-14T03:25:11.723Z,11.70
2023-03-14T03:27:43.732Z,11.70
2023-03-14T03:30:18.937Z,11.70
2023-03-14T03:32:50.977Z,11.70
2023-03-14T03:35:23.119Z,11.60
2023-03-14T03:37:55.142Z,11.60
2023-03-14T03:40:27.282Z,11.60
2023-03-14T03:42:59.255Z,11.60
2023-03-14T03:45:33.836Z,11.60
2023-03-14T03:48:06.289Z,11.60
2023-03-14T03:50:38.320Z,11.60
2023-03-14T03:53:11.128Z,11.60
2023-03-14T03:55:44.179Z,11.60
2023-03-14T03:58:16.176Z,11.50
2023-03-14T04:00:50.727Z,11.50
2023-03-14T04:03:22.673Z,11.50
2023-03-14T04:06:01.501Z,11.50
2023-03-14T04:08:33.484Z,11.50
2023-03-14T04:11:06.186Z,11.50
2023-03-14T04:13:38.243Z,11.40
2023-03-14T04:16:17.545Z,11.40
2023-03-14T04:18:49.664Z,11.30
2023-03-14T04:21:21.625Z,11.30
2023-03-14T04:23:53.580Z,11.30
2023-03-14T04:26:25.598Z,11.30
2023-03-14T04:28:57.552Z,11.20
2023-03-14T04:31:32.227Z,11.20
2023-03-14T04:34:04.222Z,11.20
2023-03-14T04:36:39.117Z,11.20
2023-03-14T04:39:11.631Z,11.20
2023-03-14T04:41:43.611Z,11.20
2023-03-14T04:44:15.586Z,11.20
2023-03-14T04:46:50.152Z,11.20
2023-03-14T04:49:22.195Z,11.20
2023-03-14T04:51:54.296Z,11.20
2023-03-14T04:54:26.237Z,11.20
2023-03-14T04:56:58.247Z,11.10
2023-03-14T04:59:30.232Z,11.20
2023-03-14T05:02:04.814Z,11.10
2023-03-14T05:04:37.260Z,11.10
2023-03-14T05:07:09.452Z,11.10
2023-03-14T05:09:41.590Z,11.10
2023-03-14T05:12:13.798Z,11.10
2023-03-14T05:14:45.759Z,11.10
2023-03-14T05:17:20.993Z,11.10
2023-03-14T05:19:52.939Z,11.10
2023-03-14T05:22:24.892Z,11.00
2023-03-14T05:24:59.465Z,11.00
2023-03-14T05:27:31.488Z,11.00
2023-03-14T05:30:03.807Z,11.00
2023-03-14T05:32:38.441Z,11.00
2023-03-14T05:35:10.464Z,11.00
2023-03-14T05:37:42.432Z,11.00
2023-03-14T05:40:14.792Z,11.00
2023-03-14T05:42:46.766Z,11.00
2023-03-14T05:45:18.967Z,11.00
2023-03-14T05:47:53.569Z,11.00
2023-03-14T05:50:25.562Z,11.00
2023-03-14T05:52:57.581Z,11.00
2023-03-14T05:55:29.654Z,11.00
2023-03-14T05:58:01.924Z,11.00
2023-03-14T06:00:39.865Z,11.10
2023-03-14T06:03:14.947Z,11.10
2023-03-14T06:05:50.040Z,11.10
2023-03-14T06:08:22.241Z,11.10
2023-03-14T06:10:54.439Z,11.10
2023-03-14T06:13:29.305Z,11.20
2023-03-14T06:16:01.557Z,11.20
2023-03-14T06:18:36.177Z,11.20
2023-03-14T06:21:08.919Z,11.20
2023-03-14T06:23:46.864Z,11.20
2023-03-14T06:26:18.845Z,11.20
2023-03-14T06:28:51.998Z,11.20
2023-03-14T06:31:24.403Z,11.30
2023-03-14T06:33:59.336Z,11.30
2023-03-14T06:36:31.346Z,11.30
2023-03-14T06:39:03.512Z,11.30
2023-03-14T06:41:35.494Z,11.30
2023-03-14T06:44:07.438Z,11.30
2023-03-14T06:46:39.400Z,11.40
2023-03-14T06:49:13.940Z,11.40
2023-03-14T06:51:45.898Z,11.40
2023-03-14T06:54:17.889Z,11.40
2023-03-14T06:56:49.796Z,11.40
2023-03-14T06:59:21.749Z,11.40
2023-03-14T07:01:53.789Z,11.40
2023-03-14T07:04:28.377Z,11.50
2023-03-14T07:07:00.381Z,11.50
2023-03-14T07:09:33.022Z,11.60
2023-03-14T07:12:05.634Z,11.60
2023-03-14T07:14:37.593Z,11.70
2023-03-14T07:17:09.531Z,11.80
2023-03-14T07:19:44.140Z,11.80
2023-03-14T07:22:16.078Z,11.90
2023-03-14T07:24:47.999Z,11.90
2023-03-14T07:27:19.914Z,12.00
2023-03-14T07:29:51.913Z,12.00
2023-03-14T07:32:24.072Z,12.10
2023-03-14T07:34:58.594Z,12.10
2023-03-14T07:37:30.554Z,12.10
2023-03-14T07:40:02.495Z,12.10
2023-03-14T07:42:34.465Z,12.20
2023-03-14T07:45:08.217Z,12.20
2023-03-14T07:47:40.136Z,12.30
2023-03-14T07:50:14.773Z,12.30
2023-03-14T07:52:46.691Z,12.30
2023-03-14T07:55:18.709Z,12.30
2023-03-14T07:57:50.643Z,12.40
2023-03-14T08:00:23.028Z,12.40
2023-03-14T08:02:54.976Z,12.40
2023-03-14T08:05:29.530Z,12.40
2023-03-14T08:08:01.507Z,12.40
2023-03-14T08:10:33.628Z,12.40
2023-03-14T08:13:05.715Z,12.40
2023-03-14T08:15:38.130Z,12.50
2023-03-14T08:18:10.156Z,12.50
2023-03-14T08:20:44.743Z,12.50
2023-03-14T08:23:16.729Z,12.60
2023-03-14T08:25:50.313Z,12.70
2023-03-14T08:28:22.368Z,12.80
2023-03-14T08:30:56.443Z,12.90
2023-03-14T08:33:30.126Z,13.00
2023-03-14T08:36:05.341Z,13.10
2023-03-14T08:38:37.417Z,13.20
2023-03-14T08:41:10.427Z,13.20
2023-03-14T08:43:42.375Z,13.20
2023-03-14T08:46:14.337Z,13.20
2023-03-14T08:48:46.351Z,13.10
2023-03-14T08:51:20.871Z,13.00
2023-03-14T08:53:52.852Z,13.00
2023-03-14T08:56:26.121Z,12.90
2023-03-14T08:58:58.200Z,12.90
2023-03-14T09:01:30.195Z,12.80
2023-03-14T09:04:02.263Z,12.80
2023-03-14T09:06:36.906Z,12.80
2023-03-14T09:09:08.989Z,12.80
2023-03-14T09:11:41.102Z,12.80
2023-03-14T09:14:13.122Z,12.80
2023-03-14T09:16:45.279Z,12.70
2023-03-14T09:19:17.237Z,12.70
2023-03-14T09:21:51.874Z,12.80
2023-03-14T09:24:23.970Z,12.70
2023-03-14T09:26:56.572Z,12.80
2023-03-14T09:29:28.783Z,12.70
2023-03-14T09:32:01.219Z,12.80
2023-03-14T09:34:34.274Z,12.80
2023-03-14T09:37:10.318Z,12.80
2023-03-14T09:39:42.293Z,12.80
2023-03-14T09:42:17.894Z,12.80
2023-03-14T09:44:56.263Z,12.80
2023-03-14T09:47:28.881Z,12.80
2023-03-14T09:50:02.628Z,12.80
2023-03-14T09:52:40.257Z,12.80
2023-03-14T09:55:14.584Z,12.80
2023-03-14T09:57:49.307Z,12.80
2023-03-14T10:00:24.174Z,12.80
2023-03-14T10:02:58.075Z,12.80
2023-03-14T10:05:31.068Z,12.90
2023-03-14T10:08:05.878Z,12.90
2023-03-14T10:10:38.181Z,13.00
2023-03-14T10:13:16.886Z,13.00
2023-03-14T10:15:52.743Z,13.00
2023-03-14T10:18:26.892Z,13.10
2023-03-14T10:21:07.895Z,13.10
2023-03-14T10:23:42.674Z,13.20
2023-03-14T10:26:16.736Z,13.20
2023-03-14T10:28:52.587Z,13.20
2023-03-14T10:31:26.922Z,13.20
2023-03-14T10:34:01.625Z,13.30
2023-03-14T10:36:35.718Z,13.20
2023-03-14T10:39:28.407Z,13.10
2023-03-14T10:42:13.429Z,13.00
2023-03-14T10:44:46.732Z,12.90
2023-03-14T10:47:23.073Z,12.80
2023-03-14T10:49:55.238Z,12.70
2023-03-14T10:52:31.602Z,12.70
2023-03-14T10:55:20.280Z,12.70
2023-03-14T10:57:52.874Z,12.60
2023-03-14T11:00:25.131Z,12.50
2023-03-14T11:03:09.616Z,12.50
2023-03-14T11:05:46.581Z,12.40
2023-03-14T11:08:24.764Z,12.40
2023-03-14T11:11:09.745Z,12.30
2023-03-14T11:13:50.269Z,12.30
2023-03-14T11:16:27.420Z,12.30
2023-03-14T11:19:14.130Z,12.20
2023-03-14T11:21:55.192Z,12.20
2023-03-14T11:24:52.022Z,12.10
2023-03-14T11:27:31.562Z,12.10
2023-03-14T11:30:16.726Z,12.10
2023-03-14T11:32:56.780Z,12.00
2023-03-14T11:35:34.356Z,11.90
2023-03-14T11:38:14.849Z,11.90
2023-03-14T11:40:49.205Z,11.80
2023-03-14T11:43:30.393Z,11.70
2023-03-14T11:46:04.965Z,11.60
2023-03-14T11:48:43.137Z,11.50
2023-03-14T11:51:22.109Z,11.40
2023-03-14T11:53:58.294Z,11.20
2023-03-14T11:56:33.510Z,11.20
2023-03-14T11:59:13.217Z,11.10
2023-03-14T12:01:56.498Z,11.20
2023-03-14T12:04:34.492Z,11.20
2023-03-14T12:07:10.187Z,11.10
2023-03-14T12:09:41.959Z,11.10
2023-03-14T12:12:14.970Z,11.10
2023-03-14T12:14:53.690Z,11.10
2023-03-14T12:17:26.879Z,11.00
2023-03-14T12:20:07.216Z,11.00
2023-03-14T12:22:44.633Z,11.00
2023-03-14T12:25:20.259Z,10.90
2023-03-14T12:28:20.262Z,10.90
2023-03-14T12:30:54.787Z,10.80
2023-03-14T12:33:31.967Z,10.70
2023-03-14T12:36:32.244Z,10.60
2023-03-14T12:39:20.296Z,10.50
2023-03-14T12:41:53.914Z,10.50
2023-03-14T12:44:47.954Z,10.40
2023-03-14T12:47:51.147Z,10.30
2023-03-14T12:50:30.169Z,10.30
2023-03-14T12:53:24.324Z,10.20
2023-03-14T12:56:03.544Z,10.10
2023-03-14T12:58:39.994Z,10.00
2023-03-14T13:01:18.656Z,10.00
2023-03-14T13:03:57.068Z,9.90
2023-03-14T13:06:55.332Z,9.90
2023-03-14T13:10:00.391Z,9.90
2023-03-14T13:12:39.915Z,9.90
2023-03-14T13:15:20.279Z,9.90
2023-03-14T13:17:54.693Z,9.90
2023-03-14T13:20:33.202Z,9.90
2023-03-14T13:23:05.742Z,9.90
2023-03-14T13:25:38.099Z,9.90
2023-03-14T13:28:11.798Z,9.90
2023-03-14T13:30:45.815Z,9.90
2023-03-14T13:33:19.814Z,10.00
2023-03-14T13:35:59.682Z,10.00
2023-03-14T13:38:33.654Z,10.00
2023-03-14T13:41:08.024Z,10.10
2023-03-14T13:43:42.671Z,10.10
2023-03-14T13:46:17.434Z,10.20
2023-03-14T13:48:51.414Z,10.20
2023-03-14T13:51:28.724Z,10.30
2023-03-14T13:54:01.139Z,10.60
2023-03-14T13:56:34.605Z,11.00
2023-03-14T13:59:21.717Z,11.20
2023-03-14T14:01:54.617Z,11.20
2023-03-14T14:04:28.103Z,11.10
2023-03-14T14:07:08.496Z,11.10
2023-03-14T14:09:44.603Z,11.00
2023-03-14T14:12:19.987Z,11.00
2023-03-14T14:14:57.289Z,10.90
2023-03-14T14:17:32.994Z,10.90
2023-03-14T14:20:09.587Z,10.80
2023-03-14T14:22:44.322Z,10.70
2023-03-14T14:25:17.183Z,10.70
2023-03-14T14:27:54.321Z,10.60
2023-03-14T14:30:30.084Z,10.60
2023-03-14T14:33:20.276Z,10.50
2023-03-14T14:35:55.323Z,10.50
2023-03-14T14:38:31.512Z,10.50
2023-03-14T14:41:04.276Z,10.50
2023-03-14T14:43:40.351Z,10.50
2023-03-14T14:46:19.003Z,10.50
2023-03-14T14:48:55.760Z,10.50
2023-03-14T14:51:33.403Z,10.50
2023-03-14T14:54:13.278Z,10.50
2023-03-14T14:56:50.696Z,10.40
2023-03-14T14:59:25.753Z,10.40
2023-03-14T15:01:59.935Z,10.40
2023-03-14T15:04:32.863Z,10.60
2023-03-14T15:07:05.037Z,10.70
2023-03-14T15:09:42.948Z,10.90
2023-03-14T15:12:15.094Z,10.90
2023-03-14T15:14:47.069Z,10.80
2023-03-14T15:17:19.033Z,10.80
2023-03-14T15:19:51.584Z,10.80
2023-03-14T15:22:23.581Z,10.80
2023-03-14T15:25:00.876Z,10.80
2023-03-14T15:27:33.955Z,10.70
2023-03-14T15:30:07.232Z,10.70
2023-03-14T15:32:42.371Z,10.70
2023-03-14T15:35:17.697Z,10.70
2023-03-14T15:37:49.955Z,10.70
2023-03-14T15:40:30.537Z,10.80
2023-03-14T15:43:03.385Z,10.90
2023-03-14T15:45:36.027Z,11.00
2023-03-14T15:48:12.854Z,11.10
2023-03-14T15:50:45.318Z,11.20
2023-03-14T15:53:17.390Z,11.30
2023-03-14T15:55:52.219Z,11.30
2023-03-14T15:58:24.569Z,11.40
2023-03-14T16:00:56.632Z,11.50
2023-03-14T16:03:28.938Z,11.40
2023-03-14T16:06:01.101Z,11.50
2023-03-14T16:08:33.148Z,11.50
2023-03-14T16:11:07.789Z,11.50
2023-03-14T16:13:39.934Z,11.50
2023-03-14T16:16:13.385Z,11.40
2023-03-14T16:18:45.433Z,11.30
2023-03-14T16:21:22.258Z,11.30
2023-03-14T16:23:54.379Z,11.20
2023-03-14T16:26:29.230Z,11.10
2023-03-14T16:29:01.481Z,10.90
2023-03-14T16:31:33.747Z,10.90
2023-03-14T16:34:06.027Z,10.80
2023-03-14T16:36:38.475Z,10.70
2023-03-14T16:39:10.531Z,10.60
2023-03-14T16:41:45.386Z,10.50
2023-03-14T16:44:17.393Z,10.40
2023-03-14T16:46:49.615Z,10.30
2023-03-14T16:49:21.716Z,10.30
2023-03-14T16:51:53.663Z,10.30
2023-03-14T16:54:26.437Z,10.20
2023-03-14T16:57:01.310Z,10.20
2023-03-14T16:59:33.393Z,10.20
2023-03-14T17:02:05.535Z,10.20
2023-03-14T17:04:40.828Z,10.10
2023-03-14T17:07:13.099Z,10.10
2023-03-14T17:09:45.131Z,10.10
2023-03-14T17:12:19.695Z,10.10
2023-03-14T17:14:51.659Z,10.00
2023-03-14T17:17:23.628Z,10.00
2023-03-14T17:19:55.621Z,9.90
2023-03-14T17:22:31.691Z,9.90
2023-03-14T17:25:05.981Z,9.90
2023-03-14T17:27:40.551Z,9.90
2023-03-14T17:30:13.819Z,9.80
2023-03-14T17:32:45.857Z,9.70
2023-03-14T17:35:18.067Z,9.70
2023-03-14T17:37:50.096Z,9.90
2023-03-14T17:40:22.081Z,9.70
2023-03-14T17:42:56.641Z,9.80
2023-03-14T17:45:28.634Z,10.10
2023-03-14T17:50:36.535Z,9.50
2023-03-14T17:53:08.789Z,9.60
2023-03-14T17:55:42.236Z,9.60
2023-03-14T17:58:17.014Z,9.50
2023-03-14T18:00:49.025Z,9.50
2023-03-14T18:03:22.474Z,9.50
2023-03-14T18:48:09.835Z,11.30
2023-03-14T18:50:41.991Z,11.30
2023-03-14T18:53:13.987Z,11.30
2023-03-14T18:55:45.984Z,11.20
2023-03-14T18:58:21.660Z,11.20
2023-03-14T19:00:57.771Z,11.20
2023-03-14T19:03:31.209Z,11.20
2023-03-14T19:06:06.217Z,11.20
2023-03-14T20:13:02.509Z,10.30
2023-03-14T20:15:39.716Z,10.40
2023-03-14T20:23:21.731Z,10.10
2023-03-14T20:25:54.966Z,10.20
2023-03-14T20:28:26.961Z,10.10
2023-03-14T20:30:59.106Z,10.00
2023-03-14T20:33:34.638Z,10.00
2023-03-14T20:36:07.986Z,9.90
2023-03-14T20:38:40.109Z,9.80
2023-03-14T20:41:12.363Z,9.80
2023-03-14T20:43:44.522Z,9.80
2023-03-14T20:46:17.824Z,9.80
2023-03-14T20:48:52.875Z,9.80
2023-03-14T20:51:25.984Z,9.80
2023-03-14T20:53:57.962Z,9.90
2023-03-14T20:56:30.066Z,9.90
2023-03-14T20:59:02.012Z,9.90
2023-03-14T21:01:34.676Z,9.90
2023-03-14T21:04:09.309Z,10.00
2023-03-14T21:06:42.428Z,10.00
2023-03-14T21:09:14.855Z,10.00
2023-03-14T21:11:49.629Z,10.00
2023-03-14T21:14:22.731Z,9.80
2023-03-14T21:16:55.723Z,9.60
2023-03-14T21:19:33.129Z,8.00
2023-03-14T21:22:05.605Z,9.20
2023-03-14T21:24:37.981Z,9.00
2023-03-14T21:27:10.406Z,8.80
2023-03-14T21:29:42.652Z,8.60
2023-03-14T21:32:14.912Z,8.50
2023-03-14T21:34:49.743Z,8.30
2023-03-14T21:37:22.454Z,8.20
2023-03-14T21:39:54.522Z,8.20
2023-03-14T21:42:26.734Z,8.10
2023-03-14T21:44:58.716Z,8.00
2023-03-14T21:47:30.888Z,7.90
2023-03-14T21:50:06.257Z,7.80
2023-03-14T21:52:38.075Z,7.80
2023-03-14T21:55:11.640Z,7.70
2023-03-14T21:57:44.944Z,7.70
2023-03-14T22:00:17.796Z,7.60
2023-03-14T22:03:10.994Z,7.60
2023-03-14T22:05:46.372Z,7.50
2023-03-14T22:13:25.789Z,7.10
2023-03-14T22:15:57.843Z,7.10
2023-03-14T22:18:31.430Z,6.90
2023-03-14T22:33:49.909Z,6.00
2023-03-14T23:12:08.506Z,5.30
2023-03-14T23:14:40.598Z,5.20
2023-03-14T23:17:12.630Z,5.20
2023-03-14T23:19:45.662Z,5.20
2023-03-14T23:22:20.242Z,5.20
2023-03-14T23:24:52.208Z,5.20
2023-03-14T23:27:24.179Z,5.20
2023-03-14T23:29:56.398Z,5.10
2023-03-14T23:32:29.000Z,5.10
2023-03-14T23:35:00.979Z,5.10
2023-03-14T23:37:35.557Z,5.00
2023-03-14T23:40:11.447Z,4.10
2023-03-14T23:42:43.435Z,4.90
2023-03-14T23:45:15.570Z,4.90
2023-03-14T23:50:21.498Z,4.80
2023-03-14T23:52:56.139Z,4.80
2023-03-14T23:55:28.117Z,4.80
2023-03-14T23:58:00.110Z,4.80
